sensor_id;sensor_type;location;lat;lon;timestamp;P1;durP1;ratioP1;P2;durP2;ratioP2
65031;SDS011;51593;55.714;37.436;2022-08-01T00:00:16;8.50;;;3.60;;
65031;SDS011;51593;55.714;37.436;2022-08-01T00:02:41;11.65;;;3.80;;
65031;SDS011;51593;55.714;37.436;2022-08-01T00:05:08;8.80;;;3.35;;
65031;SDS011;51593;55.714;37.436;2022-08-01T00:07:34;8.48;;;3.70;;
65031;SDS011;51593;55.714;37.436;2022-08-01T00:10:00;8.60;;;3.67;;
65031;SDS011;51593;55.714;37.436;2022-08-01T00:12:28;9.75;;;3.70;;
65031;SDS011;51593;55.714;37.436;2022-08-01T00:14:54;9.60;;;3.53;;
65031;SDS011;51593;55.714;37.436;2022-08-01T00:17:20;11.98;;;3.70;;
65031;SDS011;51593;55.714;37.436;2022-08-01T00:19:45;6.50;;;3.60;;
65031;SDS011;51593;55.714;37.436;2022-08-01T00:22:11;10.32;;;3.83;;
65031;SDS011;51593;55.714;37.436;2022-08-01T00:24:37;15.45;;;3.90;;
65031;SDS011;51593;55.714;37.436;2022-08-01T00:27:03;11.27;;;3.90;;
65031;SDS011;51593;55.714;37.436;2022-08-01T00:29:29;9.63;;;3.67;;
65031;SDS011;51593;55.714;37.436;2022-08-01T00:31:54;9.18;;;3.47;;
65031;SDS011;51593;55.714;37.436;2022-08-01T00:34:20;8.43;;;3.80;;
65031;SDS011;51593;55.714;37.436;2022-08-01T00:36:46;11.77;;;4.15;;
65031;SDS011;51593;55.714;37.436;2022-08-01T00:39:12;8.70;;;3.60;;
65031;SDS011;51593;55.714;37.436;2022-08-01T00:41:38;12.23;;;3.72;;
65031;SDS011;51593;55.714;37.436;2022-08-01T00:44:04;10.02;;;3.85;;
65031;SDS011;51593;55.714;37.436;2022-08-01T00:46:30;9.30;;;3.70;;
65031;SDS011;51593;55.714;37.436;2022-08-01T00:48:57;9.63;;;3.55;;
65031;SDS011;51593;55.714;37.436;2022-08-01T00:51:23;9.57;;;3.80;;
65031;SDS011;51593;55.714;37.436;2022-08-01T00:53:50;6.47;;;3.42;;
65031;SDS011;51593;55.714;37.436;2022-08-01T00:56:16;11.20;;;3.95;;
65031;SDS011;51593;55.714;37.436;2022-08-01T00:58:42;9.98;;;3.65;;
65031;SDS011;51593;55.714;37.436;2022-08-01T01:01:09;12.45;;;3.90;;
65031;SDS011;51593;55.714;37.436;2022-08-01T01:03:35;9.40;;;3.67;;
65031;SDS011;51593;55.714;37.436;2022-08-01T01:06:05;13.05;;;3.88;;
65031;SDS011;51593;55.714;37.436;2022-08-01T01:08:48;8.68;;;3.88;;
65031;SDS011;51593;55.714;37.436;2022-08-01T01:11:25;9.23;;;3.45;;
65031;SDS011;51593;55.714;37.436;2022-08-01T01:14:00;8.30;;;3.58;;
65031;SDS011;51593;55.714;37.436;2022-08-01T01:16:29;9.80;;;3.90;;
65031;SDS011;51593;55.714;37.436;2022-08-01T01:18:57;10.00;;;3.60;;
65031;SDS011;51593;55.714;37.436;2022-08-01T01:21:33;10.18;;;3.80;;
65031;SDS011;51593;55.714;37.436;2022-08-01T01:27:18;13.98;;;4.45;;
65031;SDS011;51593;55.714;37.436;2022-08-01T01:29:58;13.27;;;3.90;;
65031;SDS011;51593;55.714;37.436;2022-08-01T01:32:35;8.88;;;4.10;;
65031;SDS011;51593;55.714;37.436;2022-08-01T01:35:38;7.70;;;3.67;;
65031;SDS011;51593;55.714;37.436;2022-08-01T01:38:01;10.35;;;3.67;;
65031;SDS011;51593;55.714;37.436;2022-08-01T01:40:34;12.82;;;4.15;;
65031;SDS011;51593;55.714;37.436;2022-08-01T01:43:01;12.07;;;3.70;;
65031;SDS011;51593;55.714;37.436;2022-08-01T01:45:27;9.07;;;4.03;;
65031;SDS011;51593;55.714;37.436;2022-08-01T01:47:53;9.13;;;4.20;;
65031;SDS011;51593;55.714;37.436;2022-08-01T01:50:20;10.05;;;3.72;;
65031;SDS011;51593;55.714;37.436;2022-08-01T01:52:47;11.90;;;4.43;;
65031;SDS011;51593;55.714;37.436;2022-08-01T01:55:13;10.02;;;4.20;;
65031;SDS011;51593;55.714;37.436;2022-08-01T01:57:41;9.48;;;4.18;;
65031;SDS011;51593;55.714;37.436;2022-08-01T02:00:08;11.68;;;4.00;;
65031;SDS011;51593;55.714;37.436;2022-08-01T02:02:36;9.57;;;4.28;;
65031;SDS011;51593;55.714;37.436;2022-08-01T02:05:02;9.30;;;3.92;;
65031;SDS011;51593;55.714;37.436;2022-08-01T02:07:29;12.65;;;3.97;;
65031;SDS011;51593;55.714;37.436;2022-08-01T02:09:56;13.18;;;3.85;;
65031;SDS011;51593;55.714;37.436;2022-08-01T02:12:22;10.20;;;3.90;;
65031;SDS011;51593;55.714;37.436;2022-08-01T02:15:08;10.98;;;3.80;;
65031;SDS011;51593;55.714;37.436;2022-08-01T02:17:37;7.00;;;4.00;;
65031;SDS011;51593;55.714;37.436;2022-08-01T02:20:05;11.57;;;4.00;;
65031;SDS011;51593;55.714;37.436;2022-08-01T02:22:40;9.88;;;4.20;;
65031;SDS011;51593;55.714;37.436;2022-08-01T02:25:25;12.32;;;3.80;;
65031;SDS011;51593;55.714;37.436;2022-08-01T02:30:26;9.05;;;3.75;;
65031;SDS011;51593;55.714;37.436;2022-08-01T02:33:08;7.85;;;3.90;;
65031;SDS011;51593;55.714;37.436;2022-08-01T02:35:37;8.80;;;4.00;;
65031;SDS011;51593;55.714;37.436;2022-08-01T02:38:05;10.60;;;4.13;;
65031;SDS011;51593;55.714;37.436;2022-08-01T02:40:32;10.23;;;3.90;;
65031;SDS011;51593;55.714;37.436;2022-08-01T02:42:59;10.55;;;4.03;;
65031;SDS011;51593;55.714;37.436;2022-08-01T02:45:26;9.00;;;3.72;;
65031;SDS011;51593;55.714;37.436;2022-08-01T02:47:59;11.52;;;4.18;;
65031;SDS011;51593;55.714;37.436;2022-08-01T02:50:35;7.35;;;3.60;;
65031;SDS011;51593;55.714;37.436;2022-08-01T02:53:02;9.80;;;4.18;;
65031;SDS011;51593;55.714;37.436;2022-08-01T02:55:29;8.82;;;4.10;;
65031;SDS011;51593;55.714;37.436;2022-08-01T02:57:57;12.38;;;4.15;;
65031;SDS011;51593;55.714;37.436;2022-08-01T03:00:24;10.85;;;4.55;;
65031;SDS011;51593;55.714;37.436;2022-08-01T03:02:51;12.02;;;4.63;;
65031;SDS011;51593;55.714;37.436;2022-08-01T03:05:20;9.02;;;4.47;;
65031;SDS011;51593;55.714;37.436;2022-08-01T03:07:45;10.63;;;4.60;;
65031;SDS011;51593;55.714;37.436;2022-08-01T03:10:11;15.90;;;5.00;;
65031;SDS011;51593;55.714;37.436;2022-08-01T03:12:38;12.90;;;4.65;;
65031;SDS011;51593;55.714;37.436;2022-08-01T03:15:05;11.65;;;5.13;;
65031;SDS011;51593;55.714;37.436;2022-08-01T03:17:31;11.35;;;4.70;;
65031;SDS011;51593;55.714;37.436;2022-08-01T03:19:58;15.23;;;5.03;;
65031;SDS011;51593;55.714;37.436;2022-08-01T03:22:25;14.38;;;5.20;;
65031;SDS011;51593;55.714;37.436;2022-08-01T03:24:53;12.75;;;4.63;;
65031;SDS011;51593;55.714;37.436;2022-08-01T03:27:19;13.48;;;4.72;;
65031;SDS011;51593;55.714;37.436;2022-08-01T03:29:47;12.35;;;5.20;;
65031;SDS011;51593;55.714;37.436;2022-08-01T03:32:14;13.38;;;4.90;;
65031;SDS011;51593;55.714;37.436;2022-08-01T03:34:40;12.35;;;5.13;;
65031;SDS011;51593;55.714;37.436;2022-08-01T03:37:14;12.43;;;5.30;;
65031;SDS011;51593;55.714;37.436;2022-08-01T03:39:44;14.75;;;5.22;;
65031;SDS011;51593;55.714;37.436;2022-08-01T03:42:14;10.73;;;5.03;;
65031;SDS011;51593;55.714;37.436;2022-08-01T03:44:44;12.98;;;4.97;;
65031;SDS011;51593;55.714;37.436;2022-08-01T03:47:13;12.43;;;5.00;;
65031;SDS011;51593;55.714;37.436;2022-08-01T03:49:43;14.05;;;5.28;;
65031;SDS011;51593;55.714;37.436;2022-08-01T03:52:10;12.57;;;4.78;;
65031;SDS011;51593;55.714;37.436;2022-08-01T03:54:37;11.77;;;5.40;;
65031;SDS011;51593;55.714;37.436;2022-08-01T03:57:09;13.65;;;4.97;;
65031;SDS011;51593;55.714;37.436;2022-08-01T03:59:35;11.40;;;5.03;;
65031;SDS011;51593;55.714;37.436;2022-08-01T04:02:04;14.10;;;4.78;;
65031;SDS011;51593;55.714;37.436;2022-08-01T04:04:30;13.32;;;4.95;;
65031;SDS011;51593;55.714;37.436;2022-08-01T04:06:56;15.45;;;4.90;;
65031;SDS011;51593;55.714;37.436;2022-08-01T04:09:22;12.45;;;4.40;;
65031;SDS011;51593;55.714;37.436;2022-08-01T04:11:48;11.30;;;4.90;;
65031;SDS011;51593;55.714;37.436;2022-08-01T04:14:14;12.32;;;5.07;;
65031;SDS011;51593;55.714;37.436;2022-08-01T04:16:40;11.60;;;5.25;;
65031;SDS011;51593;55.714;37.436;2022-08-01T04:19:06;11.43;;;4.90;;
65031;SDS011;51593;55.714;37.436;2022-08-01T04:21:33;14.90;;;5.25;;
65031;SDS011;51593;55.714;37.436;2022-08-01T04:24:01;12.30;;;4.45;;
65031;SDS011;51593;55.714;37.436;2022-08-01T04:26:31;12.07;;;4.70;;
65031;SDS011;51593;55.714;37.436;2022-08-01T04:28:58;10.10;;;4.68;;
65031;SDS011;51593;55.714;37.436;2022-08-01T04:31:26;9.50;;;5.13;;
65031;SDS011;51593;55.714;37.436;2022-08-01T04:33:53;9.43;;;4.72;;
65031;SDS011;51593;55.714;37.436;2022-08-01T04:36:21;8.73;;;4.80;;
65031;SDS011;51593;55.714;37.436;2022-08-01T04:38:50;12.15;;;5.15;;
65031;SDS011;51593;55.714;37.436;2022-08-01T04:41:17;13.63;;;5.45;;
65031;SDS011;51593;55.714;37.436;2022-08-01T04:43:44;10.80;;;4.57;;
65031;SDS011;51593;55.714;37.436;2022-08-01T04:46:11;14.10;;;4.45;;
65031;SDS011;51593;55.714;37.436;2022-08-01T04:48:37;11.07;;;4.70;;
65031;SDS011;51593;55.714;37.436;2022-08-01T04:51:04;11.45;;;4.95;;
65031;SDS011;51593;55.714;37.436;2022-08-01T04:53:30;10.30;;;4.78;;
65031;SDS011;51593;55.714;37.436;2022-08-01T04:55:57;10.23;;;4.30;;
65031;SDS011;51593;55.714;37.436;2022-08-01T04:58:23;10.13;;;4.32;;
65031;SDS011;51593;55.714;37.436;2022-08-01T05:00:49;10.05;;;4.57;;
65031;SDS011;51593;55.714;37.436;2022-08-01T05:03:15;7.13;;;4.05;;
65031;SDS011;51593;55.714;37.436;2022-08-01T05:05:41;7.50;;;4.00;;
65031;SDS011;51593;55.714;37.436;2022-08-01T05:08:07;9.38;;;4.30;;
65031;SDS011;51593;55.714;37.436;2022-08-01T05:10:34;9.75;;;4.05;;
65031;SDS011;51593;55.714;37.436;2022-08-01T05:12:59;7.78;;;4.00;;
65031;SDS011;51593;55.714;37.436;2022-08-01T05:15:25;7.88;;;4.32;;
65031;SDS011;51593;55.714;37.436;2022-08-01T05:17:52;6.10;;;3.70;;
65031;SDS011;51593;55.714;37.436;2022-08-01T05:20:18;11.45;;;4.30;;
65031;SDS011;51593;55.714;37.436;2022-08-01T05:22:43;11.85;;;4.10;;
65031;SDS011;51593;55.714;37.436;2022-08-01T05:25:09;8.93;;;3.80;;
65031;SDS011;51593;55.714;37.436;2022-08-01T05:27:36;11.43;;;3.90;;
65031;SDS011;51593;55.714;37.436;2022-08-01T05:30:06;12.27;;;4.07;;
65031;SDS011;51593;55.714;37.436;2022-08-01T05:32:33;8.48;;;3.88;;
65031;SDS011;51593;55.714;37.436;2022-08-01T05:34:59;10.95;;;3.47;;
65031;SDS011;51593;55.714;37.436;2022-08-01T05:37:25;6.32;;;3.10;;
65031;SDS011;51593;55.714;37.436;2022-08-01T05:39:51;6.63;;;3.05;;
65031;SDS011;51593;55.714;37.436;2022-08-01T05:42:17;6.65;;;2.90;;
65031;SDS011;51593;55.714;37.436;2022-08-01T05:44:44;7.68;;;2.88;;
65031;SDS011;51593;55.714;37.436;2022-08-01T05:47:10;9.07;;;2.80;;
65031;SDS011;51593;55.714;37.436;2022-08-01T05:49:36;5.88;;;2.63;;
65031;SDS011;51593;55.714;37.436;2022-08-01T05:52:01;9.85;;;3.00;;
65031;SDS011;51593;55.714;37.436;2022-08-01T05:54:27;6.05;;;2.60;;
65031;SDS011;51593;55.714;37.436;2022-08-01T05:56:53;12.02;;;3.00;;
65031;SDS011;51593;55.714;37.436;2022-08-01T05:59:20;7.03;;;3.10;;
65031;SDS011;51593;55.714;37.436;2022-08-01T06:01:46;8.68;;;2.83;;
65031;SDS011;51593;55.714;37.436;2022-08-01T06:04:12;9.50;;;2.92;;
65031;SDS011;51593;55.714;37.436;2022-08-01T06:06:37;10.05;;;2.85;;
65031;SDS011;51593;55.714;37.436;2022-08-01T06:09:03;5.82;;;2.38;;
65031;SDS011;51593;55.714;37.436;2022-08-01T06:11:29;5.05;;;2.60;;
65031;SDS011;51593;55.714;37.436;2022-08-01T06:13:55;10.32;;;3.17;;
65031;SDS011;51593;55.714;37.436;2022-08-01T06:16:20;10.18;;;2.70;;
65031;SDS011;51593;55.714;37.436;2022-08-01T06:18:46;5.97;;;2.60;;
65031;SDS011;51593;55.714;37.436;2022-08-01T06:21:12;6.72;;;2.58;;
65031;SDS011;51593;55.714;37.436;2022-08-01T06:23:39;6.15;;;2.70;;
65031;SDS011;51593;55.714;37.436;2022-08-01T06:26:06;7.72;;;2.97;;
65031;SDS011;51593;55.714;37.436;2022-08-01T06:28:32;5.82;;;2.70;;
65031;SDS011;51593;55.714;37.436;2022-08-01T06:30:57;4.68;;;2.70;;
65031;SDS011;51593;55.714;37.436;2022-08-01T06:33:24;4.43;;;2.58;;
65031;SDS011;51593;55.714;37.436;2022-08-01T06:35:50;7.00;;;2.72;;
65031;SDS011;51593;55.714;37.436;2022-08-01T06:38:16;6.78;;;2.70;;
65031;SDS011;51593;55.714;37.436;2022-08-01T06:40:42;7.72;;;3.20;;
65031;SDS011;51593;55.714;37.436;2022-08-01T06:43:08;11.15;;;2.67;;
65031;SDS011;51593;55.714;37.436;2022-08-01T06:45:33;8.23;;;2.58;;
65031;SDS011;51593;55.714;37.436;2022-08-01T06:48:01;8.40;;;2.80;;
65031;SDS011;51593;55.714;37.436;2022-08-01T06:50:27;7.03;;;2.60;;
65031;SDS011;51593;55.714;37.436;2022-08-01T06:52:53;10.18;;;2.90;;
65031;SDS011;51593;55.714;37.436;2022-08-01T06:55:18;12.15;;;3.35;;
65031;SDS011;51593;55.714;37.436;2022-08-01T06:57:48;11.70;;;3.35;;
65031;SDS011;51593;55.714;37.436;2022-08-01T07:00:16;7.13;;;3.30;;
65031;SDS011;51593;55.714;37.436;2022-08-01T07:02:44;13.30;;;3.28;;
65031;SDS011;51593;55.714;37.436;2022-08-01T07:05:11;8.25;;;3.35;;
65031;SDS011;51593;55.714;37.436;2022-08-01T07:07:36;7.78;;;2.80;;
65031;SDS011;51593;55.714;37.436;2022-08-01T07:10:02;6.03;;;2.90;;
65031;SDS011;51593;55.714;37.436;2022-08-01T07:12:28;8.95;;;3.25;;
65031;SDS011;51593;55.714;37.436;2022-08-01T07:14:56;7.00;;;3.17;;
65031;SDS011;51593;55.714;37.436;2022-08-01T07:17:21;5.70;;;3.15;;
65031;SDS011;51593;55.714;37.436;2022-08-01T07:19:47;6.50;;;3.40;;
65031;SDS011;51593;55.714;37.436;2022-08-01T07:22:13;8.65;;;2.90;;
65031;SDS011;51593;55.714;37.436;2022-08-01T07:24:42;10.98;;;3.22;;
65031;SDS011;51593;55.714;37.436;2022-08-01T07:27:07;12.10;;;3.67;;
65031;SDS011;51593;55.714;37.436;2022-08-01T07:29:33;9.75;;;3.78;;
65031;SDS011;51593;55.714;37.436;2022-08-01T07:31:59;7.85;;;4.18;;
65031;SDS011;51593;55.714;37.436;2022-08-01T07:34:25;11.90;;;4.22;;
65031;SDS011;51593;55.714;37.436;2022-08-01T07:36:51;9.93;;;4.40;;
65031;SDS011;51593;55.714;37.436;2022-08-01T07:39:17;11.90;;;3.80;;
65031;SDS011;51593;55.714;37.436;2022-08-01T07:41:44;10.88;;;4.18;;
65031;SDS011;51593;55.714;37.436;2022-08-01T07:44:10;9.57;;;4.03;;
65031;SDS011;51593;55.714;37.436;2022-08-01T07:46:36;11.95;;;3.97;;
65031;SDS011;51593;55.714;37.436;2022-08-01T07:49:02;8.40;;;3.90;;
65031;SDS011;51593;55.714;37.436;2022-08-01T07:51:27;8.52;;;3.80;;
65031;SDS011;51593;55.714;37.436;2022-08-01T07:53:53;9.82;;;4.03;;
65031;SDS011;51593;55.714;37.436;2022-08-01T07:56:19;11.55;;;3.55;;
65031;SDS011;51593;55.714;37.436;2022-08-01T07:58:44;15.73;;;3.55;;
65031;SDS011;51593;55.714;37.436;2022-08-01T08:01:11;8.63;;;3.83;;
65031;SDS011;51593;55.714;37.436;2022-08-01T08:03:37;9.98;;;3.80;;
65031;SDS011;51593;55.714;37.436;2022-08-01T08:06:03;14.55;;;3.55;;
65031;SDS011;51593;55.714;37.436;2022-08-01T08:08:29;10.90;;;3.80;;
65031;SDS011;51593;55.714;37.436;2022-08-01T08:10:55;8.18;;;3.75;;
65031;SDS011;51593;55.714;37.436;2022-08-01T08:13:21;10.52;;;3.28;;
65031;SDS011;51593;55.714;37.436;2022-08-01T08:15:47;6.70;;;3.50;;
65031;SDS011;51593;55.714;37.436;2022-08-01T08:18:12;11.43;;;3.88;;
65031;SDS011;51593;55.714;37.436;2022-08-01T08:20:38;10.55;;;3.60;;
65031;SDS011;51593;55.714;37.436;2022-08-01T08:23:04;8.70;;;3.45;;
65031;SDS011;51593;55.714;37.436;2022-08-01T08:25:50;6.60;;;3.55;;
65031;SDS011;51593;55.714;37.436;2022-08-01T08:28:15;10.30;;;3.63;;
65031;SDS011;51593;55.714;37.436;2022-08-01T08:30:41;9.68;;;3.63;;
65031;SDS011;51593;55.714;37.436;2022-08-01T08:33:07;9.65;;;3.22;;
65031;SDS011;51593;55.714;37.436;2022-08-01T08:35:32;8.20;;;3.15;;
65031;SDS011;51593;55.714;37.436;2022-08-01T08:37:58;5.47;;;2.55;;
65031;SDS011;51593;55.714;37.436;2022-08-01T08:40:24;7.70;;;2.60;;
65031;SDS011;51593;55.714;37.436;2022-08-01T08:42:54;7.43;;;2.88;;
65031;SDS011;51593;55.714;37.436;2022-08-01T08:45:20;7.15;;;2.97;;
65031;SDS011;51593;55.714;37.436;2022-08-01T08:47:46;7.85;;;2.70;;
65031;SDS011;51593;55.714;37.436;2022-08-01T08:50:13;7.53;;;2.83;;
65031;SDS011;51593;55.714;37.436;2022-08-01T08:52:39;8.65;;;2.47;;
65031;SDS011;51593;55.714;37.436;2022-08-01T08:55:05;8.50;;;2.67;;
65031;SDS011;51593;55.714;37.436;2022-08-01T08:57:34;5.72;;;2.50;;
65031;SDS011;51593;55.714;37.436;2022-08-01T09:00:00;5.95;;;2.45;;
65031;SDS011;51593;55.714;37.436;2022-08-01T09:02:27;7.05;;;2.40;;
65031;SDS011;51593;55.714;37.436;2022-08-01T09:04:53;4.03;;;2.20;;
65031;SDS011;51593;55.714;37.436;2022-08-01T09:07:19;6.45;;;2.58;;
65031;SDS011;51593;55.714;37.436;2022-08-01T09:09:45;4.38;;;2.60;;
65031;SDS011;51593;55.714;37.436;2022-08-01T09:12:15;6.00;;;2.33;;
65031;SDS011;51593;55.714;37.436;2022-08-01T09:14:46;6.00;;;2.55;;
65031;SDS011;51593;55.714;37.436;2022-08-01T09:17:12;6.20;;;2.30;;
65031;SDS011;51593;55.714;37.436;2022-08-01T09:24:55;7.07;;;2.05;;
65031;SDS011;51593;55.714;37.436;2022-08-01T09:27:34;5.28;;;2.60;;
65031;SDS011;51593;55.714;37.436;2022-08-01T09:35:30;7.15;;;2.67;;
65031;SDS011;51593;55.714;37.436;2022-08-01T09:38:12;6.90;;;2.40;;
65031;SDS011;51593;55.714;37.436;2022-08-01T09:40:55;5.80;;;2.63;;
65031;SDS011;51593;55.714;37.436;2022-08-01T09:43:28;6.97;;;2.63;;
65031;SDS011;51593;55.714;37.436;2022-08-01T09:45:55;4.88;;;2.58;;
65031;SDS011;51593;55.714;37.436;2022-08-01T09:48:22;4.28;;;2.67;;
65031;SDS011;51593;55.714;37.436;2022-08-01T09:50:51;7.18;;;2.75;;
65031;SDS011;51593;55.714;37.436;2022-08-01T09:53:18;8.75;;;2.83;;
65031;SDS011;51593;55.714;37.436;2022-08-01T09:55:44;7.45;;;2.63;;
65031;SDS011;51593;55.714;37.436;2022-08-01T09:58:10;5.65;;;2.78;;
65031;SDS011;51593;55.714;37.436;2022-08-01T10:00:37;6.43;;;2.80;;
65031;SDS011;51593;55.714;37.436;2022-08-01T10:03:23;7.88;;;2.70;;
65031;SDS011;51593;55.714;37.436;2022-08-01T10:05:50;7.82;;;2.45;;
65031;SDS011;51593;55.714;37.436;2022-08-01T10:08:18;6.78;;;2.90;;
65031;SDS011;51593;55.714;37.436;2022-08-01T10:13:33;5.78;;;2.70;;
65031;SDS011;51593;55.714;37.436;2022-08-01T10:16:00;5.00;;;2.60;;
65031;SDS011;51593;55.714;37.436;2022-08-01T10:18:26;4.63;;;2.55;;
65031;SDS011;51593;55.714;37.436;2022-08-01T10:20:52;8.40;;;2.90;;
65031;SDS011;51593;55.714;37.436;2022-08-01T10:23:19;4.35;;;2.53;;
65031;SDS011;51593;55.714;37.436;2022-08-01T10:25:45;9.98;;;2.80;;
65031;SDS011;51593;55.714;37.436;2022-08-01T10:28:15;5.20;;;2.53;;
65031;SDS011;51593;55.714;37.436;2022-08-01T10:30:44;7.85;;;2.63;;
65031;SDS011;51593;55.714;37.436;2022-08-01T10:33:11;5.63;;;2.63;;
65031;SDS011;51593;55.714;37.436;2022-08-01T10:35:38;5.40;;;2.60;;
65031;SDS011;51593;55.714;37.436;2022-08-01T10:38:04;5.32;;;2.88;;
65031;SDS011;51593;55.714;37.436;2022-08-01T10:40:30;6.82;;;2.90;;
65031;SDS011;51593;55.714;37.436;2022-08-01T10:42:56;4.18;;;2.63;;
65031;SDS011;51593;55.714;37.436;2022-08-01T10:45:22;5.40;;;2.50;;
65031;SDS011;51593;55.714;37.436;2022-08-01T10:47:51;6.60;;;2.60;;
65031;SDS011;51593;55.714;37.436;2022-08-01T10:50:41;5.20;;;2.47;;
65031;SDS011;51593;55.714;37.436;2022-08-01T10:53:13;7.43;;;2.60;;
65031;SDS011;51593;55.714;37.436;2022-08-01T10:55:51;4.78;;;2.58;;
65031;SDS011;51593;55.714;37.436;2022-08-01T10:58:28;7.82;;;2.78;;
65031;SDS011;51593;55.714;37.436;2022-08-01T11:08:59;13.75;;;3.17;;
65031;SDS011;51593;55.714;37.436;2022-08-01T11:11:27;10.63;;;3.03;;
65031;SDS011;51593;55.714;37.436;2022-08-01T11:16:37;5.75;;;2.80;;
65031;SDS011;51593;55.714;37.436;2022-08-01T11:19:04;12.45;;;2.90;;
65031;SDS011;51593;55.714;37.436;2022-08-01T11:27:16;6.00;;;2.65;;
65031;SDS011;51593;55.714;37.436;2022-08-01T11:32:31;3.38;;;2.47;;
65031;SDS011;51593;55.714;37.436;2022-08-01T11:34:57;6.72;;;2.50;;
65031;SDS011;51593;55.714;37.436;2022-08-01T11:37:28;7.72;;;3.13;;
65031;SDS011;51593;55.714;37.436;2022-08-01T11:42:49;5.55;;;2.85;;
65031;SDS011;51593;55.714;37.436;2022-08-01T11:45:16;4.28;;;2.75;;
65031;SDS011;51593;55.714;37.436;2022-08-01T11:50:31;7.00;;;2.80;;
65031;SDS011;51593;55.714;37.436;2022-08-01T11:53:06;7.15;;;2.88;;
65031;SDS011;51593;55.714;37.436;2022-08-01T11:55:33;8.10;;;3.10;;
65031;SDS011;51593;55.714;37.436;2022-08-01T11:58:05;6.07;;;2.95;;
65031;SDS011;51593;55.714;37.436;2022-08-01T12:00:32;4.38;;;2.70;;
65031;SDS011;51593;55.714;37.436;2022-08-01T12:03:02;6.22;;;2.60;;
65031;SDS011;51593;55.714;37.436;2022-08-01T12:05:32;8.48;;;2.83;;
65031;SDS011;51593;55.714;37.436;2022-08-01T12:08:02;6.57;;;2.85;;
65031;SDS011;51593;55.714;37.436;2022-08-01T12:10:30;6.00;;;2.85;;
65031;SDS011;51593;55.714;37.436;2022-08-01T12:13:02;9.38;;;3.10;;
65031;SDS011;51593;55.714;37.436;2022-08-01T12:15:36;7.53;;;3.08;;
65031;SDS011;51593;55.714;37.436;2022-08-01T12:18:04;7.65;;;3.00;;
65031;SDS011;51593;55.714;37.436;2022-08-01T12:20:38;7.20;;;2.88;;
65031;SDS011;51593;55.714;37.436;2022-08-01T12:23:05;7.72;;;2.78;;
65031;SDS011;51593;55.714;37.436;2022-08-01T12:25:34;5.93;;;3.05;;
65031;SDS011;51593;55.714;37.436;2022-08-01T12:28:00;6.38;;;2.80;;
65031;SDS011;51593;55.714;37.436;2022-08-01T12:30:28;7.60;;;2.80;;
65031;SDS011;51593;55.714;37.436;2022-08-01T12:32:56;6.10;;;2.78;;
65031;SDS011;51593;55.714;37.436;2022-08-01T12:35:26;7.47;;;2.80;;
65031;SDS011;51593;55.714;37.436;2022-08-01T12:37:54;7.75;;;2.70;;
65031;SDS011;51593;55.714;37.436;2022-08-01T12:40:24;5.90;;;2.60;;
65031;SDS011;51593;55.714;37.436;2022-08-01T12:42:58;5.63;;;2.92;;
65031;SDS011;51593;55.714;37.436;2022-08-01T12:45:27;7.55;;;2.75;;
65031;SDS011;51593;55.714;37.436;2022-08-01T12:47:54;9.38;;;3.00;;
65031;SDS011;51593;55.714;37.436;2022-08-01T12:50:23;6.68;;;3.00;;
65031;SDS011;51593;55.714;37.436;2022-08-01T12:52:50;5.40;;;2.70;;
65031;SDS011;51593;55.714;37.436;2022-08-01T12:57:44;5.35;;;2.70;;
65031;SDS011;51593;55.714;37.436;2022-08-01T13:00:22;6.50;;;2.60;;
65031;SDS011;51593;55.714;37.436;2022-08-01T13:03:06;8.23;;;3.00;;
65031;SDS011;51593;55.714;37.436;2022-08-01T13:08:12;9.50;;;3.05;;
65031;SDS011;51593;55.714;37.436;2022-08-01T13:10:39;6.10;;;2.70;;
65031;SDS011;51593;55.714;37.436;2022-08-01T13:13:05;6.80;;;2.80;;
65031;SDS011;51593;55.714;37.436;2022-08-01T13:15:33;7.32;;;2.90;;
65031;SDS011;51593;55.714;37.436;2022-08-01T13:18:21;6.13;;;2.72;;
65031;SDS011;51593;55.714;37.436;2022-08-01T13:20:48;8.65;;;2.92;;
65031;SDS011;51593;55.714;37.436;2022-08-01T13:23:15;10.52;;;3.33;;
65031;SDS011;51593;55.714;37.436;2022-08-01T13:25:52;11.45;;;2.80;;
65031;SDS011;51593;55.714;37.436;2022-08-01T13:28:22;6.18;;;2.80;;
65031;SDS011;51593;55.714;37.436;2022-08-01T13:30:57;7.03;;;2.70;;
65031;SDS011;51593;55.714;37.436;2022-08-01T13:33:25;9.45;;;2.90;;
65031;SDS011;51593;55.714;37.436;2022-08-01T13:35:53;9.70;;;3.22;;
65031;SDS011;51593;55.714;37.436;2022-08-01T13:38:20;5.93;;;2.90;;
65031;SDS011;51593;55.714;37.436;2022-08-01T13:41:06;6.15;;;2.92;;
65031;SDS011;51593;55.714;37.436;2022-08-01T13:43:32;7.10;;;3.10;;
65031;SDS011;51593;55.714;37.436;2022-08-01T13:45:58;7.47;;;2.90;;
65031;SDS011;51593;55.714;37.436;2022-08-01T13:48:28;7.95;;;3.10;;
65031;SDS011;51593;55.714;37.436;2022-08-01T13:50:54;12.48;;;3.30;;
65031;SDS011;51593;55.714;37.436;2022-08-01T13:53:20;8.15;;;2.95;;
65031;SDS011;51593;55.714;37.436;2022-08-01T13:55:45;8.52;;;3.10;;
65031;SDS011;51593;55.714;37.436;2022-08-01T13:58:14;5.45;;;2.70;;
65031;SDS011;51593;55.714;37.436;2022-08-01T14:00:40;5.03;;;2.83;;
65031;SDS011;51593;55.714;37.436;2022-08-01T14:03:06;10.93;;;3.00;;
65031;SDS011;51593;55.714;37.436;2022-08-01T14:05:33;6.18;;;2.97;;
65031;SDS011;51593;55.714;37.436;2022-08-01T14:07:58;6.28;;;2.90;;
65031;SDS011;51593;55.714;37.436;2022-08-01T14:10:24;8.07;;;3.15;;
65031;SDS011;51593;55.714;37.436;2022-08-01T14:12:50;9.85;;;3.10;;
65031;SDS011;51593;55.714;37.436;2022-08-01T14:15:16;13.30;;;3.55;;
65031;SDS011;51593;55.714;37.436;2022-08-01T14:17:42;6.30;;;2.80;;
65031;SDS011;51593;55.714;37.436;2022-08-01T14:20:08;7.88;;;3.05;;
65031;SDS011;51593;55.714;37.436;2022-08-01T14:22:34;12.82;;;3.13;;
65031;SDS011;51593;55.714;37.436;2022-08-01T14:25:00;11.23;;;3.00;;
65031;SDS011;51593;55.714;37.436;2022-08-01T14:27:26;7.10;;;3.28;;
65031;SDS011;51593;55.714;37.436;2022-08-01T14:29:52;7.57;;;3.42;;
65031;SDS011;51593;55.714;37.436;2022-08-01T14:32:18;6.22;;;3.20;;
65031;SDS011;51593;55.714;37.436;2022-08-01T14:34:44;7.05;;;3.20;;
65031;SDS011;51593;55.714;37.436;2022-08-01T14:37:10;10.32;;;3.30;;
65031;SDS011;51593;55.714;37.436;2022-08-01T14:39:36;12.27;;;3.22;;
65031;SDS011;51593;55.714;37.436;2022-08-01T14:42:05;6.20;;;3.08;;
65031;SDS011;51593;55.714;37.436;2022-08-01T14:44:30;8.88;;;3.20;;
65031;SDS011;51593;55.714;37.436;2022-08-01T14:46:56;7.95;;;2.78;;
65031;SDS011;51593;55.714;37.436;2022-08-01T14:49:22;9.68;;;2.75;;
65031;SDS011;51593;55.714;37.436;2022-08-01T14:51:48;8.85;;;3.20;;
65031;SDS011;51593;55.714;37.436;2022-08-01T14:54:14;7.32;;;2.72;;
65031;SDS011;51593;55.714;37.436;2022-08-01T14:56:40;11.27;;;3.17;;
65031;SDS011;51593;55.714;37.436;2022-08-01T14:59:06;10.90;;;3.05;;
65031;SDS011;51593;55.714;37.436;2022-08-01T15:01:31;6.47;;;2.60;;
65031;SDS011;51593;55.714;37.436;2022-08-01T15:03:57;5.40;;;2.70;;
65031;SDS011;51593;55.714;37.436;2022-08-01T15:06:23;8.70;;;2.90;;
65031;SDS011;51593;55.714;37.436;2022-08-01T15:08:48;11.88;;;3.22;;
65031;SDS011;51593;55.714;37.436;2022-08-01T15:11:14;8.10;;;3.40;;
65031;SDS011;51593;55.714;37.436;2022-08-01T15:13:40;6.47;;;2.72;;
65031;SDS011;51593;55.714;37.436;2022-08-01T15:16:06;9.82;;;3.00;;
65031;SDS011;51593;55.714;37.436;2022-08-01T15:18:31;9.30;;;3.10;;
65031;SDS011;51593;55.714;37.436;2022-08-01T15:20:57;12.18;;;3.13;;
65031;SDS011;51593;55.714;37.436;2022-08-01T15:23:23;7.90;;;2.95;;